createdAt,value
2018-10-03T00:00:28.898Z,10.22
2018-10-03T00:05:26.373Z,10.21
2018-10-03T00:10:23.893Z,10.24
2018-10-03T00:15:21.358Z,10.28
2018-10-03T00:20:18.854Z,10.24
2018-10-03T00:25:16.353Z,10.19
2018-10-03T00:30:13.830Z,10.13
2018-10-03T00:35:11.312Z,10.07
2018-10-03T00:40:08.814Z,10.15
2018-10-03T00:45:06.534Z,10.15
2018-10-03T00:50:04.070Z,10.11
2018-10-03T00:55:02.055Z,10.18
2018-10-03T00:59:59.652Z,10.26
2018-10-03T01:04:57.206Z,10.36
2018-10-03T01:09:54.725Z,10.45
2018-10-03T01:14:52.233Z,10.48
2018-10-03T01:19:49.694Z,10.58
2018-10-03T01:24:48.457Z,10.56
2018-10-03T01:29:45.917Z,10.61
2018-10-03T01:34:43.362Z,10.69
2018-10-03T01:39:40.917Z,10.77
2018-10-03T01:44:38.454Z,10.84
2018-10-03T01:49:35.923Z,10.83
2018-10-03T01:54:34.563Z,10.92
2018-10-03T01:59:32.057Z,10.96
2018-10-03T02:04:29.516Z,10.96
2018-10-03T02:09:28.150Z,10.96
2018-10-03T02:14:25.622Z,10.95
2018-10-03T02:19:23.078Z,11.03
2018-10-03T02:24:25.968Z,11.01
2018-10-03T02:29:23.481Z,11.06
2018-10-03T02:34:20.924Z,11.04
2018-10-03T02:39:18.672Z,11.00
2018-10-03T02:44:16.124Z,11.08
2018-10-03T02:49:13.677Z,11.09
2018-10-03T02:54:21.827Z,11.03
2018-10-03T02:59:19.346Z,10.96
2018-10-03T03:04:16.823Z,11.03
2018-10-03T03:09:14.307Z,11.08
2018-10-03T03:14:11.780Z,11.14
2018-10-03T03:19:09.300Z,11.13
2018-10-03T03:24:12.076Z,11.17
2018-10-03T03:29:09.605Z,11.18
2018-10-03T03:34:07.102Z,11.23
2018-10-03T03:39:05.999Z,11.28
2018-10-03T03:44:03.530Z,11.25
2018-10-03T03:49:00.999Z,11.25
2018-10-03T03:54:06.533Z,11.28
2018-10-03T03:59:04.134Z,11.30
2018-10-03T04:04:01.594Z,11.29
2018-10-03T04:08:59.054Z,11.28
2018-10-03T04:13:56.520Z,11.27
2018-10-03T04:18:53.983Z,11.35
2018-10-03T04:23:59.463Z,11.33
2018-10-03T04:28:57.063Z,11.40
2018-10-03T04:33:54.538Z,11.34
2018-10-03T04:38:51.994Z,11.34
2018-10-03T04:43:49.554Z,11.26
2018-10-03T04:48:47.023Z,11.27
2018-10-03T04:53:48.453Z,11.27
2018-10-03T04:58:45.923Z,11.17
2018-10-03T05:03:43.425Z,11.14
2018-10-03T05:08:40.926Z,11.15
2018-10-03T05:13:38.442Z,11.09
2018-10-03T05:18:35.899Z,11.01
2018-10-03T05:23:33.445Z,10.99
2018-10-03T05:28:30.961Z,10.96
2018-10-03T05:33:28.790Z,10.97
2018-10-03T05:38:26.290Z,10.98
2018-10-03T05:43:23.779Z,10.97
2018-10-03T05:48:21.270Z,10.99
2018-10-03T05:53:18.765Z,11.02
2018-10-03T05:58:16.233Z,10.97
2018-10-03T06:03:13.727Z,11.09
2018-10-03T06:08:11.209Z,11.12
2018-10-03T06:13:08.685Z,11.14
2018-10-03T06:18:06.342Z,11.15
2018-10-03T06:23:03.819Z,11.14
2018-10-03T06:28:04.990Z,11.34
2018-10-03T06:33:06.246Z,11.25
2018-10-03T06:38:08.817Z,11.30
2018-10-03T06:43:07.507Z,11.36
2018-10-03T06:48:10.322Z,11.41
2018-10-03T06:53:07.865Z,11.42
2018-10-03T06:58:05.329Z,11.39
2018-10-03T07:03:02.829Z,11.65
2018-10-03T07:08:00.313Z,11.48
2018-10-03T07:12:57.835Z,11.48
2018-10-03T07:17:55.320Z,11.59
2018-10-03T07:22:52.862Z,11.68
2018-10-03T07:27:50.442Z,11.63
2018-10-03T07:32:47.963Z,11.60
2018-10-03T07:37:45.541Z,11.77
2018-10-03T07:42:43.178Z,11.89
2018-10-03T07:47:40.735Z,12.00
2018-10-03T07:52:38.225Z,11.98
2018-10-03T07:57:35.931Z,12.17
2018-10-03T08:02:33.610Z,12.20
2018-10-03T08:07:31.193Z,12.31
2018-10-03T08:12:28.833Z,12.42
2018-10-03T08:17:26.369Z,12.56
2018-10-03T08:22:23.907Z,12.41
2018-10-03T08:27:21.395Z,12.51
2018-10-03T08:32:18.998Z,12.71
2018-10-03T08:37:16.569Z,12.59
2018-10-03T08:42:14.114Z,12.96
2018-10-03T08:47:11.628Z,12.81
2018-10-03T08:52:09.137Z,12.88
2018-10-03T08:57:06.776Z,12.96
2018-10-03T09:02:04.325Z,12.87
2018-10-03T09:07:01.954Z,13.02
2018-10-03T09:11:59.439Z,13.04
2018-10-03T09:16:56.925Z,13.28
2018-10-03T09:21:54.476Z,13.42
2018-10-03T09:26:52.067Z,14.03
2018-10-03T09:31:50.491Z,13.90
2018-10-03T09:36:48.003Z,13.84
2018-10-03T09:41:45.590Z,13.45
2018-10-03T09:46:44.495Z,13.45
2018-10-03T09:51:42.282Z,14.07
2018-10-03T09:56:39.849Z,13.49
2018-10-03T10:01:37.367Z,13.36
2018-10-03T10:06:35.159Z,13.42
2018-10-03T10:11:32.791Z,13.28
2018-10-03T10:16:30.225Z,13.69
2018-10-03T10:21:27.745Z,13.59
2018-10-03T10:26:25.245Z,14.20
2018-10-03T10:31:22.765Z,13.79
2018-10-03T10:36:20.276Z,14.43
2018-10-03T10:41:17.854Z,14.26
2018-10-03T10:46:15.341Z,13.94
2018-10-03T10:51:12.849Z,14.23
2018-10-03T10:56:10.355Z,13.86
2018-10-03T11:01:08.720Z,14.03
2018-10-03T11:06:06.305Z,14.40
2018-10-03T11:11:03.767Z,14.32
2018-10-03T11:16:01.526Z,14.24
2018-10-03T11:20:59.021Z,14.27
2018-10-03T11:25:56.981Z,14.37
2018-10-03T11:30:54.637Z,14.95
2018-10-03T11:35:52.169Z,14.73
2018-10-03T11:40:49.666Z,14.44
2018-10-03T11:45:47.209Z,14.54
2018-10-03T11:50:44.771Z,14.67
2018-10-03T11:55:42.334Z,15.02
2018-10-03T12:00:39.923Z,14.78
2018-10-03T12:05:37.450Z,14.80
2018-10-03T12:10:34.946Z,14.46
2018-10-03T12:15:32.479Z,14.44
2018-10-03T12:20:30.059Z,14.49
2018-10-03T12:25:27.559Z,14.55
2018-10-03T12:30:25.070Z,14.40
2018-10-03T12:35:33.177Z,14.28
2018-10-03T12:40:31.478Z,14.58
2018-10-03T12:45:29.219Z,15.15
2018-10-03T12:50:27.337Z,15.18
2018-10-03T12:55:24.990Z,14.62
2018-10-03T13:00:24.919Z,14.97
2018-10-03T13:05:22.536Z,14.93
2018-10-03T13:10:20.023Z,14.76
2018-10-03T13:15:23.900Z,14.70
2018-10-03T13:20:21.448Z,15.57
2018-10-03T13:25:19.090Z,15.13
2018-10-03T13:30:16.651Z,14.94
2018-10-03T13:35:15.179Z,15.32
2018-10-03T13:40:12.689Z,14.99
2018-10-03T13:45:10.159Z,15.24
2018-10-03T13:50:07.727Z,15.18
2018-10-03T13:55:05.205Z,15.25
2018-10-03T14:00:03.808Z,15.23
2018-10-03T14:05:01.342Z,15.22
2018-10-03T14:09:58.840Z,14.82
2018-10-03T14:14:56.358Z,15.01
2018-10-03T14:19:53.832Z,15.14
2018-10-03T14:24:52.435Z,14.96
2018-10-03T14:29:49.958Z,15.24
2018-10-03T14:34:47.471Z,15.33
2018-10-03T14:39:45.053Z,14.85
2018-10-03T14:44:42.493Z,14.75
2018-10-03T14:49:40.024Z,14.67
2018-10-03T14:54:38.680Z,15.12
2018-10-03T14:59:36.177Z,14.75
2018-10-03T15:04:33.716Z,14.45
2018-10-03T15:09:31.211Z,14.45
2018-10-03T15:14:28.685Z,14.60
2018-10-03T15:19:26.855Z,14.54
2018-10-03T15:24:25.626Z,14.60
2018-10-03T15:29:23.230Z,14.81
2018-10-03T15:34:21.473Z,14.85
2018-10-03T15:39:19.061Z,14.89
2018-10-03T15:44:16.640Z,14.88
2018-10-03T15:49:15.966Z,14.63
2018-10-03T15:54:16.774Z,14.66
2018-10-03T15:59:14.327Z,14.68
2018-10-03T16:04:11.854Z,14.53
2018-10-03T16:09:10.098Z,14.56
2018-10-03T16:14:07.597Z,14.46
2018-10-03T16:19:05.171Z,14.39
2018-10-03T16:24:09.284Z,14.38
2018-10-03T16:29:06.925Z,14.37
2018-10-03T16:34:05.475Z,14.18
2018-10-03T16:39:04.519Z,14.05
2018-10-03T16:44:02.010Z,13.96
2018-10-03T16:49:03.378Z,13.90
2018-10-03T16:54:06.497Z,13.72
2018-10-03T16:59:12.414Z,13.49
2018-10-03T17:04:14.648Z,13.38
2018-10-03T17:09:17.273Z,13.30
2018-10-03T17:14:33.810Z,13.14
2018-10-03T17:19:39.819Z,12.99
2018-10-03T17:24:47.629Z,12.90
2018-10-03T17:29:50.454Z,12.79
2018-10-03T17:34:55.481Z,12.65
2018-10-03T17:39:58.727Z,12.54
2018-10-03T17:45:03.336Z,12.22
2018-10-03T17:50:03.827Z,11.77
2018-10-03T17:55:07.762Z,11.28
2018-10-03T18:00:06.400Z,10.80
2018-10-03T18:05:04.927Z,10.45
2018-10-03T18:10:02.688Z,10.33
2018-10-03T18:15:01.028Z,10.00
2018-10-03T18:19:59.099Z,10.28
2018-10-03T18:24:57.821Z,10.24
2018-10-03T18:29:55.305Z,9.98
2018-10-03T18:34:52.747Z,10.03
2018-10-03T18:39:50.231Z,10.07
2018-10-03T18:44:47.708Z,10.19
2018-10-03T18:49:45.189Z,10.05
2018-10-03T18:54:44.453Z,9.93
2018-10-03T18:59:41.973Z,10.04
2018-10-03T19:04:39.451Z,9.76
2018-10-03T19:09:37.353Z,9.46
2018-10-03T19:14:34.838Z,9.28
2018-10-03T19:19:32.414Z,9.23
2018-10-03T19:24:32.811Z,9.06
2018-10-03T19:29:30.949Z,8.96
2018-10-03T19:34:28.474Z,8.90
2018-10-03T19:39:25.949Z,8.73
2018-10-03T19:44:23.414Z,8.61
2018-10-03T19:49:20.874Z,8.55
2018-10-03T19:54:20.547Z,8.35
2018-10-03T19:59:21.778Z,8.22
2018-10-03T20:04:19.337Z,8.12
2018-10-03T20:09:16.950Z,8.05
2018-10-03T20:14:14.505Z,8.00
2018-10-03T20:19:12.102Z,7.92
2018-10-03T20:24:19.746Z,7.91
2018-10-03T20:29:17.398Z,8.00
2018-10-03T20:34:15.903Z,8.03
2018-10-03T20:39:13.456Z,8.12
2018-10-03T20:44:11.118Z,8.23
2018-10-03T20:49:08.927Z,8.66
2018-10-03T20:54:24.095Z,8.37
2018-10-03T20:59:21.755Z,8.18
2018-10-03T21:04:19.283Z,8.11
2018-10-03T21:09:16.758Z,8.10
2018-10-03T21:14:14.240Z,8.04
2018-10-03T21:19:13.025Z,7.92
2018-10-03T21:24:21.350Z,7.88
2018-10-03T21:29:18.869Z,7.78
2018-10-03T21:34:16.338Z,7.83
2018-10-03T21:39:13.865Z,7.66
2018-10-03T21:44:11.336Z,7.56
2018-10-03T21:49:08.802Z,7.57
2018-10-03T21:54:11.463Z,7.60
2018-10-03T21:59:09.002Z,7.43
2018-10-03T22:04:06.601Z,7.40
2018-10-03T22:09:05.814Z,7.62
2018-10-03T22:14:03.279Z,7.29
2018-10-03T22:19:00.833Z,7.46
2018-10-03T22:24:04.864Z,7.22
2018-10-03T22:29:02.385Z,7.10
2018-10-03T22:33:59.854Z,7.01
2018-10-03T22:38:57.350Z,6.82
2018-10-03T22:43:54.842Z,6.71
2018-10-03T22:48:52.311Z,6.68
2018-10-03T22:53:51.533Z,6.66
2018-10-03T22:58:49.104Z,6.78
2018-10-03T23:03:46.606Z,7.29
2018-10-03T23:08:44.058Z,6.73
2018-10-03T23:13:41.546Z,7.19
2018-10-03T23:18:38.999Z,6.88
2018-10-03T23:23:36.478Z,6.70
2018-10-03T23:28:33.952Z,6.62
2018-10-03T23:33:31.417Z,6.68
2018-10-03T23:38:29.166Z,6.89
2018-10-03T23:43:26.642Z,6.52
2018-10-03T23:48:24.139Z,6.52
2018-10-03T23:53:21.915Z,6.60
2018-10-03T23:58:19.388Z,7.05
